createdAt,value
2019-01-22T00:01:27.917Z,35.97
2019-01-22T00:04:09.270Z,39.97
2019-01-22T00:06:50.682Z,37.23
2019-01-22T00:09:32.266Z,33.63
2019-01-22T00:12:14.543Z,37.57
2019-01-22T00:14:55.827Z,38.17
2019-01-22T00:17:37.138Z,35.53
2019-01-22T00:20:22.026Z,37.70
2019-01-22T00:23:03.463Z,39.27
2019-01-22T00:25:44.644Z,35.23
2019-01-22T00:28:25.716Z,38.03
2019-01-22T00:31:06.822Z,43.33
2019-01-22T00:33:49.075Z,41.63
2019-01-22T00:36:30.259Z,42.83
2019-01-22T00:39:12.303Z,36.83
2019-01-22T00:41:54.219Z,41.23
2019-01-22T00:44:35.239Z,41.33
2019-01-22T00:47:16.310Z,43.17
2019-01-22T00:49:57.736Z,45.33
2019-01-22T00:52:42.486Z,40.67
2019-01-22T00:55:24.329Z,38.07
2019-01-22T00:58:05.955Z,41.00
2019-01-22T01:00:47.138Z,37.10
2019-01-22T01:03:29.092Z,37.80
2019-01-22T01:06:10.199Z,39.20
2019-01-22T01:08:51.370Z,35.60
2019-01-22T01:11:32.763Z,40.53
2019-01-22T01:14:14.078Z,37.93
2019-01-22T01:16:56.014Z,37.20
2019-01-22T01:19:37.270Z,34.97
2019-01-22T01:22:18.387Z,38.97
2019-01-22T01:24:59.526Z,43.10
2019-01-22T01:27:40.935Z,40.73
2019-01-22T01:30:22.147Z,35.80
2019-01-22T01:33:04.200Z,44.43
2019-01-22T01:35:45.243Z,34.20
2019-01-22T01:38:26.455Z,39.20
2019-01-22T01:41:07.683Z,38.00
2019-01-22T01:43:52.518Z,38.80
2019-01-22T01:46:33.571Z,35.60
2019-01-22T01:49:15.438Z,38.33
2019-01-22T01:51:56.799Z,38.50
2019-01-22T01:54:38.156Z,31.70
2019-01-22T01:57:19.463Z,37.97
2019-01-22T02:00:01.214Z,38.80
2019-01-22T02:02:43.462Z,37.03
2019-01-22T02:05:25.366Z,44.47
2019-01-22T02:08:07.077Z,44.67
2019-01-22T02:10:48.478Z,46.50
2019-01-22T02:13:29.980Z,46.73
2019-01-22T02:16:11.072Z,43.90
2019-01-22T02:18:52.654Z,46.43
2019-01-22T02:21:34.260Z,40.70
2019-01-22T02:24:15.616Z,43.13
2019-01-22T02:26:57.057Z,42.77
2019-01-22T02:29:38.087Z,38.97
2019-01-22T02:32:19.539Z,39.23
2019-01-22T02:35:00.843Z,40.20
2019-01-22T02:37:42.757Z,48.20
2019-01-22T02:40:23.889Z,40.50
2019-01-22T02:43:05.991Z,39.03
2019-01-22T02:45:47.248Z,39.80
2019-01-22T02:48:28.431Z,40.93
2019-01-22T02:51:09.537Z,37.53
2019-01-22T02:53:51.143Z,40.47
2019-01-22T02:56:32.531Z,37.07
2019-01-22T02:59:13.716Z,35.63
2019-01-22T03:01:55.867Z,42.43
2019-01-22T03:04:37.092Z,40.07
2019-01-22T03:07:19.019Z,38.43
2019-01-22T03:10:00.848Z,36.87
2019-01-22T03:12:42.251Z,39.10
2019-01-22T03:15:23.318Z,35.70
2019-01-22T03:18:04.730Z,34.07
2019-01-22T03:20:46.631Z,42.27
2019-01-22T03:23:28.936Z,34.10
2019-01-22T03:26:09.943Z,37.73
2019-01-22T03:28:51.191Z,32.87
2019-01-22T03:31:33.134Z,36.63
2019-01-22T03:34:15.019Z,34.13
2019-01-22T03:36:56.100Z,35.00
2019-01-22T03:39:37.503Z,33.47
2019-01-22T03:42:18.746Z,31.57
2019-01-22T03:45:00.776Z,28.07
2019-01-22T03:47:42.030Z,25.83
2019-01-22T03:50:23.764Z,40.07
2019-01-22T03:53:04.912Z,37.93
2019-01-22T03:55:46.408Z,39.20
2019-01-22T03:58:27.875Z,31.73
2019-01-22T04:01:09.307Z,31.73
2019-01-22T04:03:50.817Z,28.87
2019-01-22T04:06:32.803Z,32.47
2019-01-22T04:09:14.280Z,31.80
2019-01-22T04:11:55.323Z,33.40
2019-01-22T04:14:36.479Z,34.70
2019-01-22T04:17:17.612Z,31.90
2019-01-22T04:19:59.548Z,24.93
2019-01-22T04:22:41.539Z,29.03
2019-01-22T04:25:23.359Z,32.20
2019-01-22T04:28:04.772Z,31.13
2019-01-22T04:30:46.139Z,25.53
2019-01-22T04:33:27.445Z,29.73
2019-01-22T04:36:08.746Z,28.00
2019-01-22T04:38:50.171Z,27.93
2019-01-22T04:41:31.593Z,31.83
2019-01-22T04:44:12.818Z,32.60
2019-01-22T04:46:54.679Z,29.63
2019-01-22T04:49:36.045Z,29.27
2019-01-22T04:52:17.293Z,23.87
2019-01-22T04:54:58.412Z,22.30
2019-01-22T04:57:40.284Z,22.40
2019-01-22T05:00:21.563Z,28.13
2019-01-22T05:03:03.548Z,21.23
2019-01-22T05:05:45.346Z,22.03
2019-01-22T05:11:52.099Z,31.10
2019-01-22T05:14:33.374Z,21.60
2019-01-22T05:17:14.867Z,23.00
2019-01-22T05:19:56.059Z,23.67
2019-01-22T05:22:37.588Z,24.43
2019-01-22T05:25:19.256Z,26.47
2019-01-22T05:28:00.531Z,30.93
2019-01-22T05:30:41.689Z,27.43
2019-01-22T05:33:23.983Z,33.70
2019-01-22T05:36:06.050Z,21.50
2019-01-22T05:38:48.186Z,29.03
2019-01-22T05:41:29.656Z,28.03
2019-01-22T05:44:10.731Z,25.33
2019-01-22T05:46:52.030Z,27.40
2019-01-22T05:49:33.206Z,25.93
2019-01-22T05:52:14.525Z,29.70
2019-01-22T05:54:56.527Z,29.03
2019-01-22T05:57:37.643Z,26.20
2019-01-22T06:00:19.001Z,23.60
2019-01-22T06:03:00.877Z,18.50
2019-01-22T06:05:42.540Z,21.97
2019-01-22T06:08:23.615Z,25.00
2019-01-22T06:11:04.940Z,21.70
2019-01-22T06:13:46.023Z,23.57
2019-01-22T06:16:27.176Z,24.17
2019-01-22T06:19:08.479Z,22.60
2019-01-22T06:21:50.228Z,24.60
2019-01-22T06:24:33.236Z,24.67
2019-01-22T06:27:14.511Z,24.00
2019-01-22T06:33:21.517Z,22.90
2019-01-22T06:36:02.580Z,22.63
2019-01-22T06:38:44.468Z,19.87
2019-01-22T06:41:25.872Z,24.23
2019-01-22T06:44:07.340Z,22.43
2019-01-22T06:46:48.552Z,21.50
2019-01-22T06:49:29.996Z,19.17
2019-01-22T06:52:11.023Z,24.27
2019-01-22T06:54:52.179Z,25.50
2019-01-22T06:57:33.519Z,24.17
2019-01-22T07:00:14.836Z,22.07
2019-01-22T07:02:56.168Z,21.63
2019-01-22T07:05:37.557Z,29.03
2019-01-22T07:08:19.645Z,25.07
2019-01-22T07:11:01.375Z,28.03
2019-01-22T07:13:42.824Z,22.57
2019-01-22T07:16:24.198Z,23.03
2019-01-22T07:21:48.996Z,24.30
2019-01-22T07:24:30.640Z,26.43
2019-01-22T07:27:12.148Z,26.00
2019-01-22T07:29:53.395Z,23.97
2019-01-22T07:32:35.070Z,27.60
2019-01-22T07:35:16.456Z,26.97
2019-01-22T07:37:58.458Z,25.43
2019-01-22T07:40:40.354Z,27.07
2019-01-22T07:43:21.494Z,26.27
2019-01-22T07:46:03.437Z,28.97
2019-01-22T07:48:44.971Z,22.63
2019-01-22T07:51:26.500Z,25.90
2019-01-22T07:54:08.220Z,22.23
2019-01-22T07:56:49.314Z,26.20
2019-01-22T07:59:30.812Z,25.53
2019-01-22T08:02:12.554Z,19.87
2019-01-22T08:04:55.273Z,24.50
2019-01-22T08:07:38.439Z,22.57
2019-01-22T08:10:19.953Z,23.00
2019-01-22T08:13:01.126Z,22.10
2019-01-22T08:15:42.365Z,22.43
2019-01-22T08:18:23.642Z,25.20
2019-01-22T08:21:05.023Z,24.63
2019-01-22T08:23:46.171Z,23.70
2019-01-22T08:26:27.240Z,26.80
2019-01-22T08:29:08.503Z,24.80
2019-01-22T08:31:49.652Z,24.03
2019-01-22T08:34:30.955Z,25.07
2019-01-22T08:37:12.485Z,27.50
2019-01-22T08:39:53.526Z,21.00
2019-01-22T08:42:34.961Z,19.80
2019-01-22T08:45:16.355Z,22.70
2019-01-22T08:47:57.446Z,21.90
2019-01-22T08:50:38.743Z,25.73
2019-01-22T08:53:20.383Z,22.60
2019-01-22T08:56:01.875Z,20.20
2019-01-22T08:58:43.095Z,22.23
2019-01-22T09:01:24.216Z,19.00
2019-01-22T09:04:05.578Z,19.03
2019-01-22T09:06:47.071Z,19.63
2019-01-22T09:09:29.074Z,19.10
2019-01-22T09:12:10.218Z,20.20
2019-01-22T09:14:51.178Z,23.43
2019-01-22T09:17:32.656Z,20.13
2019-01-22T09:20:32.911Z,16.27
2019-01-22T09:23:14.568Z,19.50
2019-01-22T09:25:55.705Z,21.00
2019-01-22T09:28:37.287Z,22.40
2019-01-22T09:31:18.666Z,22.07
2019-01-22T09:33:59.827Z,18.70
2019-01-22T09:36:41.284Z,19.57
2019-01-22T09:39:22.789Z,18.67
2019-01-22T09:42:04.722Z,16.50
2019-01-22T09:44:45.944Z,18.83
2019-01-22T09:47:27.345Z,16.93
2019-01-22T09:50:08.756Z,18.03
2019-01-22T09:52:49.923Z,17.60
2019-01-22T09:55:31.069Z,18.50
2019-01-22T09:58:12.239Z,18.43
2019-01-22T10:00:54.133Z,17.57
2019-01-22T10:03:35.185Z,16.23
2019-01-22T10:06:16.543Z,16.03
2019-01-22T10:08:57.838Z,17.23
2019-01-22T10:11:38.854Z,19.43
2019-01-22T10:14:20.721Z,23.07
2019-01-22T10:17:02.106Z,21.53
2019-01-22T10:19:43.994Z,21.33
2019-01-22T10:22:25.400Z,18.33
2019-01-22T10:25:06.536Z,20.40
2019-01-22T10:27:47.832Z,18.30
2019-01-22T10:30:32.652Z,16.73
2019-01-22T10:33:14.387Z,16.03
2019-01-22T10:35:55.714Z,19.33
2019-01-22T10:38:37.573Z,16.17
2019-01-22T10:41:18.795Z,18.87
2019-01-22T10:44:00.723Z,16.50
2019-01-22T10:46:41.813Z,14.97
2019-01-22T10:49:23.744Z,17.50
2019-01-22T10:52:05.128Z,17.63
2019-01-22T10:54:47.052Z,13.67
2019-01-22T10:57:28.195Z,17.43
2019-01-22T11:00:09.762Z,16.63
2019-01-22T11:02:51.103Z,16.50
2019-01-22T11:05:32.432Z,16.60
2019-01-22T11:08:13.850Z,17.77
2019-01-22T11:10:55.843Z,20.27
2019-01-22T11:13:37.302Z,16.63
2019-01-22T11:16:19.256Z,16.03
2019-01-22T11:19:00.567Z,17.20
2019-01-22T11:25:21.572Z,17.43
2019-01-22T11:28:03.008Z,15.03
2019-01-22T11:30:44.963Z,14.80
2019-01-22T11:33:26.999Z,14.27
2019-01-22T11:36:08.835Z,16.17
2019-01-22T11:38:50.908Z,15.63
2019-01-22T11:41:31.995Z,15.67
2019-01-22T11:44:13.518Z,16.90
2019-01-22T11:46:54.554Z,15.30
2019-01-22T11:49:35.936Z,13.87
2019-01-22T11:52:17.359Z,15.83
2019-01-22T11:54:58.824Z,14.80
2019-01-22T11:57:40.131Z,13.40
2019-01-22T12:00:23.320Z,15.20
2019-01-22T12:03:05.392Z,15.23
2019-01-22T12:05:46.490Z,14.20
2019-01-22T12:08:27.560Z,12.67
2019-01-22T12:11:08.899Z,14.07
2019-01-22T12:13:54.146Z,12.97
2019-01-22T12:16:33.871Z,15.57
2019-01-22T12:19:15.266Z,12.70
2019-01-22T12:21:56.420Z,12.80
2019-01-22T12:24:37.886Z,12.10
2019-01-22T12:27:19.159Z,12.27
2019-01-22T12:30:00.392Z,10.23
2019-01-22T12:32:41.731Z,11.13
2019-01-22T12:35:23.012Z,14.87
2019-01-22T12:38:04.312Z,11.93
2019-01-22T12:40:45.965Z,12.17
2019-01-22T12:43:27.295Z,13.80
2019-01-22T12:46:09.264Z,12.07
2019-01-22T12:48:50.365Z,15.03
2019-01-22T12:51:31.739Z,13.93
2019-01-22T12:54:13.230Z,13.87
2019-01-22T12:56:54.565Z,16.10
2019-01-22T12:59:36.484Z,14.30
2019-01-22T13:02:17.932Z,14.47
2019-01-22T13:04:59.677Z,15.47
2019-01-22T13:07:40.829Z,13.20
2019-01-22T13:10:22.116Z,14.53
2019-01-22T13:13:03.219Z,15.27
2019-01-22T13:15:44.520Z,14.00
2019-01-22T13:18:25.633Z,19.80
2019-01-22T13:21:06.807Z,18.00
2019-01-22T13:23:48.060Z,17.97
2019-01-22T13:26:29.123Z,16.50
2019-01-22T13:29:10.240Z,13.43
2019-01-22T13:31:51.401Z,16.53
2019-01-22T13:34:32.948Z,16.40
2019-01-22T13:37:14.224Z,20.47
2019-01-22T13:39:55.292Z,15.47
2019-01-22T13:42:36.440Z,18.80
2019-01-22T13:45:18.387Z,16.77
2019-01-22T13:47:59.771Z,17.57
2019-01-22T13:50:40.912Z,16.67
2019-01-22T13:53:22.883Z,17.23
2019-01-22T13:56:04.130Z,13.67
2019-01-22T13:58:46.377Z,16.37
2019-01-22T14:01:28.064Z,20.90
2019-01-22T14:04:09.492Z,16.83
2019-01-22T14:06:51.000Z,18.70
2019-01-22T14:09:32.798Z,19.20
2019-01-22T14:12:14.180Z,17.37
2019-01-22T14:14:55.271Z,24.80
2019-01-22T14:17:36.336Z,18.87
2019-01-22T14:20:17.891Z,24.10
2019-01-22T14:23:19.145Z,22.93
2019-01-22T14:26:09.498Z,19.50
2019-01-22T14:28:51.147Z,22.07
2019-01-22T14:31:32.937Z,22.60
2019-01-22T14:34:14.351Z,18.20
2019-01-22T14:36:55.962Z,23.63
2019-01-22T14:39:37.625Z,24.23
2019-01-22T14:42:19.029Z,26.03
2019-01-22T14:45:00.955Z,21.80
2019-01-22T14:47:42.018Z,24.23
2019-01-22T14:50:23.346Z,28.70
2019-01-22T14:53:04.452Z,30.40
2019-01-22T14:55:45.550Z,24.97
2019-01-22T14:58:26.955Z,26.17
2019-01-22T15:04:34.154Z,32.70
2019-01-22T15:07:15.762Z,24.30
2019-01-22T15:09:57.699Z,33.33
2019-01-22T15:12:39.175Z,28.50
2019-01-22T15:15:20.705Z,30.50
2019-01-22T15:18:02.192Z,30.33
2019-01-22T15:20:43.282Z,28.93
2019-01-22T15:23:24.861Z,31.87
2019-01-22T15:26:06.913Z,29.60
2019-01-22T15:28:48.619Z,30.37
2019-01-22T15:31:30.068Z,30.43
2019-01-22T15:34:11.611Z,32.20
2019-01-22T15:36:52.947Z,29.80
2019-01-22T15:39:34.695Z,30.85
2019-01-22T15:42:19.468Z,32.17
2019-01-22T15:45:06.150Z,27.50
2019-01-22T15:47:44.358Z,34.20
2019-01-22T15:50:25.467Z,29.13
2019-01-22T15:53:06.646Z,33.03
2019-01-22T15:55:48.177Z,32.23
2019-01-22T15:58:30.209Z,31.10
2019-01-22T16:01:12.124Z,32.03
2019-01-22T16:03:53.822Z,32.10
2019-01-22T16:06:35.295Z,30.10
2019-01-22T16:12:00.848Z,35.53
2019-01-22T16:14:42.498Z,34.07
2019-01-22T16:17:23.739Z,31.30
2019-01-22T16:20:04.959Z,32.33
2019-01-22T16:22:46.412Z,31.70
2019-01-22T16:25:27.880Z,35.03
2019-01-22T16:28:09.509Z,32.77
2019-01-22T16:30:50.926Z,37.50
2019-01-22T16:33:32.497Z,34.50
2019-01-22T16:36:14.215Z,33.80
2019-01-22T16:38:55.610Z,34.67
2019-01-22T16:41:37.568Z,34.77
2019-01-22T16:44:18.729Z,35.53
2019-01-22T16:47:00.130Z,38.77
2019-01-22T16:49:41.274Z,34.27
2019-01-22T16:52:23.230Z,36.23
2019-01-22T16:55:05.146Z,32.73
2019-01-22T16:57:46.323Z,44.40
2019-01-22T17:00:27.794Z,39.53
2019-01-22T17:03:09.675Z,38.27
2019-01-22T17:05:50.733Z,34.70
2019-01-22T17:08:32.312Z,38.00
2019-01-22T17:11:17.106Z,44.43
2019-01-22T17:13:58.448Z,36.60
2019-01-22T17:16:39.959Z,36.33
2019-01-22T17:19:21.953Z,36.03
2019-01-22T17:22:03.805Z,37.03
2019-01-22T17:24:45.170Z,42.23
2019-01-22T17:27:26.419Z,36.17
2019-01-22T17:30:08.463Z,38.10
2019-01-22T17:32:51.402Z,38.33
2019-01-22T17:35:34.528Z,34.67
2019-01-22T17:38:16.011Z,37.73
2019-01-22T17:40:57.389Z,34.00
2019-01-22T17:43:38.913Z,35.50
2019-01-22T17:46:20.647Z,32.67
2019-01-22T17:49:02.095Z,37.40
2019-01-22T17:51:43.188Z,38.30
2019-01-22T17:54:25.104Z,37.90
2019-01-22T17:57:06.296Z,40.20
2019-01-22T17:59:48.233Z,35.57
2019-01-22T18:02:34.733Z,33.23
2019-01-22T18:05:12.859Z,31.73
2019-01-22T18:07:54.351Z,37.40
2019-01-22T18:10:35.985Z,32.43
2019-01-22T18:13:17.460Z,31.67
2019-01-22T18:15:58.532Z,42.47
2019-01-22T18:18:40.428Z,38.37
2019-01-22T18:21:22.141Z,33.90
2019-01-22T18:24:04.133Z,32.23
2019-01-22T18:26:46.097Z,33.53
2019-01-22T18:29:27.676Z,33.07
2019-01-22T18:32:08.945Z,35.70
2019-01-22T18:34:50.873Z,42.83
2019-01-22T18:37:32.218Z,35.47
2019-01-22T18:40:14.059Z,31.60
2019-01-22T18:42:55.468Z,35.70
2019-01-22T18:45:36.914Z,34.80
2019-01-22T18:48:18.199Z,38.43
2019-01-22T18:50:59.607Z,38.77
2019-01-22T18:53:41.011Z,36.50
2019-01-22T18:56:22.565Z,32.50
2019-01-22T18:59:04.596Z,33.50
2019-01-22T19:01:46.025Z,38.87
2019-01-22T19:04:27.456Z,38.83
2019-01-22T19:07:08.745Z,38.63
2019-01-22T19:09:49.956Z,40.00
2019-01-22T19:12:31.158Z,38.33
2019-01-22T19:15:12.462Z,39.57
2019-01-22T19:17:54.003Z,37.70
2019-01-22T19:20:35.408Z,42.53
2019-01-22T19:23:17.360Z,36.10
2019-01-22T19:25:58.588Z,40.33
2019-01-22T19:28:40.245Z,35.57
2019-01-22T19:31:21.677Z,36.77
2019-01-22T19:34:02.875Z,37.27
2019-01-22T19:36:43.900Z,41.17
2019-01-22T19:39:25.028Z,37.37
2019-01-22T19:42:06.470Z,33.73
2019-01-22T19:44:47.530Z,40.60
2019-01-22T19:47:29.074Z,39.57
2019-01-22T19:50:10.393Z,38.60
2019-01-22T19:52:51.937Z,37.83
2019-01-22T19:55:33.224Z,34.77
2019-01-22T19:58:14.427Z,41.57
2019-01-22T20:00:55.829Z,40.47
2019-01-22T20:03:37.172Z,36.17
2019-01-22T20:06:18.215Z,40.83
2019-01-22T20:09:03.011Z,38.50
2019-01-22T20:11:44.997Z,40.87
2019-01-22T20:14:26.831Z,37.33
2019-01-22T20:17:07.927Z,45.37
2019-01-22T20:19:49.870Z,40.57
2019-01-22T20:22:30.982Z,40.40
2019-01-22T20:25:12.772Z,40.07
2019-01-22T20:27:53.996Z,36.53
2019-01-22T20:30:38.253Z,39.50
2019-01-22T20:33:20.043Z,41.33
2019-01-22T20:36:01.225Z,40.50
2019-01-22T20:38:42.703Z,45.97
2019-01-22T20:41:24.258Z,43.30
2019-01-22T20:44:05.666Z,44.80
2019-01-22T20:46:47.037Z,40.37
2019-01-22T20:49:28.414Z,39.40
2019-01-22T20:52:09.516Z,44.70
2019-01-22T20:54:50.788Z,47.80
2019-01-22T20:57:31.899Z,40.27
2019-01-22T21:00:13.483Z,41.73
2019-01-22T21:02:54.891Z,44.43
2019-01-22T21:05:36.328Z,48.63
2019-01-22T21:08:17.999Z,42.10
2019-01-22T21:10:59.524Z,38.60
2019-01-22T21:13:40.609Z,43.80
2019-01-22T21:16:22.216Z,40.00
2019-01-22T21:19:03.697Z,39.40
2019-01-22T21:21:45.635Z,46.77
2019-01-22T21:24:27.173Z,44.03
2019-01-22T21:27:08.407Z,39.20
2019-01-22T21:29:49.965Z,37.60
2019-01-22T21:32:31.629Z,47.77
2019-01-22T21:35:13.524Z,40.87
2019-01-22T21:37:54.649Z,45.70
2019-01-22T21:40:36.060Z,51.80
2019-01-22T21:43:17.378Z,45.33
2019-01-22T21:45:59.341Z,41.93
2019-01-22T21:48:40.761Z,43.90
2019-01-22T21:51:22.045Z,44.30
2019-01-22T21:54:03.715Z,40.40
2019-01-22T21:59:28.283Z,45.00
2019-01-22T22:02:22.586Z,41.43
2019-01-22T22:05:04.545Z,45.73
2019-01-22T22:07:45.675Z,46.03
2019-01-22T22:10:27.604Z,42.87
2019-01-22T22:13:09.338Z,46.20
2019-01-22T22:15:50.760Z,45.03
2019-01-22T22:18:32.096Z,38.23
2019-01-22T22:21:13.450Z,39.27
2019-01-22T22:23:54.704Z,39.03
2019-01-22T22:26:36.544Z,42.63
2019-01-22T22:29:17.569Z,38.30
2019-01-22T22:31:58.637Z,37.90
2019-01-22T22:34:39.775Z,51.07
2019-01-22T22:37:21.483Z,43.73
2019-01-22T22:40:02.605Z,39.70
2019-01-22T22:43:05.716Z,48.50
2019-01-22T22:46:01.676Z,39.37
2019-01-22T22:48:43.461Z,42.90
2019-01-22T22:51:25.179Z,38.77
2019-01-22T22:54:06.546Z,43.30
2019-01-22T22:56:47.898Z,45.90
2019-01-22T22:59:29.057Z,52.30
2019-01-22T23:02:11.043Z,45.77
2019-01-22T23:04:52.124Z,46.63
2019-01-22T23:07:33.179Z,40.20
2019-01-22T23:10:14.788Z,45.07
2019-01-22T23:13:02.890Z,45.73
2019-01-22T23:16:03.111Z,43.77
2019-01-22T23:25:50.257Z,48.37
2019-01-22T23:27:45.878Z,45.10
2019-01-22T23:30:51.762Z,44.07
2019-01-22T23:36:44.971Z,46.43
2019-01-22T23:39:26.454Z,45.80
2019-01-22T23:42:07.510Z,42.43
2019-01-22T23:44:48.709Z,41.67
2019-01-22T23:47:30.180Z,42.60
2019-01-22T23:50:11.564Z,39.80
2019-01-22T23:52:52.975Z,49.27
2019-01-22T23:55:34.237Z,47.23
2019-01-22T23:58:16.137Z,45.90
